createdAt,value
2023-05-20T00:00:01.600Z,11.13
2023-05-20T00:02:31.507Z,11.30
2023-05-20T00:04:59.840Z,11.37
2023-05-20T00:07:28.112Z,11.17
2023-05-20T00:09:56.515Z,12.60
2023-05-20T00:12:24.630Z,11.70
2023-05-20T00:14:53.812Z,11.73
2023-05-20T00:17:23.378Z,12.37
2023-05-20T00:19:52.854Z,13.20
2023-05-20T00:22:21.172Z,12.10
2023-05-20T00:24:49.290Z,12.30
2023-05-20T00:27:17.373Z,14.30
2023-05-20T00:29:46.228Z,12.63
2023-05-20T00:32:14.454Z,13.10
2023-05-20T00:34:44.577Z,13.77
2023-05-20T00:37:14.028Z,13.33
2023-05-20T00:39:42.136Z,12.67
2023-05-20T00:42:10.368Z,13.20
2023-05-20T00:44:38.462Z,12.73
2023-05-20T00:47:06.933Z,12.83
2023-05-20T00:49:35.066Z,13.37
2023-05-20T00:52:03.205Z,13.07
2023-05-20T00:54:33.289Z,13.30
2023-05-20T00:57:03.072Z,13.90
2023-05-20T00:59:31.298Z,14.17
2023-05-20T01:01:59.734Z,13.00
2023-05-20T01:04:28.504Z,13.50
2023-05-20T01:06:57.513Z,11.90
2023-05-20T01:09:26.003Z,12.70
2023-05-20T01:12:00.375Z,12.80
2023-05-20T01:14:31.210Z,14.13
2023-05-20T01:17:02.288Z,14.00
2023-05-20T01:19:38.430Z,12.90
2023-05-20T01:22:12.503Z,13.37
2023-05-20T01:24:43.084Z,14.07
2023-05-20T01:27:13.575Z,13.90
2023-05-20T01:29:43.386Z,14.53
2023-05-20T01:32:16.030Z,14.83
2023-05-20T01:34:45.319Z,13.83
2023-05-20T01:37:15.054Z,14.07
2023-05-20T01:39:45.132Z,15.30
2023-05-20T01:42:14.854Z,14.90
2023-05-20T01:44:43.405Z,14.70
2023-05-20T01:47:11.570Z,14.80
2023-05-20T01:49:39.672Z,14.80
2023-05-20T01:52:08.051Z,14.50
2023-05-20T01:54:36.202Z,13.40
2023-05-20T01:57:06.109Z,14.87
2023-05-20T01:59:34.215Z,14.60
2023-05-20T02:02:02.403Z,14.67
2023-05-20T02:04:30.524Z,14.67
2023-05-20T02:06:58.635Z,14.87
2023-05-20T02:09:26.735Z,14.77
2023-05-20T02:11:54.893Z,15.27
2023-05-20T02:14:24.360Z,15.73
2023-05-20T02:16:52.540Z,15.03
2023-05-20T02:19:23.800Z,14.83
2023-05-20T02:21:52.998Z,14.50
2023-05-20T02:24:21.704Z,16.33
2023-05-20T02:26:51.200Z,16.17
2023-05-20T02:29:22.108Z,17.00
2023-05-20T02:31:51.586Z,15.13
2023-05-20T02:34:20.352Z,13.57
2023-05-20T02:36:48.785Z,14.70
2023-05-20T02:39:17.014Z,14.17
2023-05-20T02:41:45.145Z,15.87
2023-05-20T02:44:13.499Z,15.80
2023-05-20T02:46:41.590Z,16.87
2023-05-20T02:49:11.067Z,16.10
2023-05-20T02:51:39.180Z,15.70
2023-05-20T02:54:07.255Z,17.17
2023-05-20T02:56:35.362Z,15.90
2023-05-20T02:59:04.805Z,15.90
2023-05-20T03:01:33.899Z,18.40
2023-05-20T03:04:03.496Z,17.40
2023-05-20T03:06:33.188Z,16.30
2023-05-20T03:09:01.560Z,16.23
2023-05-20T03:11:29.637Z,17.00
2023-05-20T03:13:57.822Z,17.00
2023-05-20T03:16:28.179Z,16.30
2023-05-20T03:18:56.489Z,16.47
2023-05-20T03:21:25.306Z,16.87
2023-05-20T03:23:54.796Z,16.40
2023-05-20T03:26:23.247Z,17.30
2023-05-20T03:28:51.388Z,16.50
2023-05-20T03:31:19.518Z,16.93
2023-05-20T03:33:47.695Z,18.77
2023-05-20T03:36:15.969Z,16.63
2023-05-20T03:38:44.053Z,17.70
2023-05-20T03:41:13.601Z,16.50
2023-05-20T03:43:41.742Z,16.30
2023-05-20T03:46:09.879Z,16.93
2023-05-20T03:48:37.970Z,17.70
2023-05-20T03:51:06.267Z,16.77
2023-05-20T03:53:34.387Z,17.13
2023-05-20T03:56:02.532Z,17.30
2023-05-20T03:58:32.382Z,16.30
2023-05-20T04:01:00.495Z,18.33
2023-05-20T04:03:29.162Z,19.40
2023-05-20T04:05:57.308Z,20.00
2023-05-20T04:08:26.391Z,18.90
2023-05-20T04:10:57.630Z,20.37
2023-05-20T04:13:26.736Z,19.63
2023-05-20T04:15:56.418Z,18.40
2023-05-20T04:18:24.526Z,19.23
2023-05-20T04:20:56.347Z,20.70
2023-05-20T04:23:24.629Z,19.40
2023-05-20T04:25:52.721Z,19.30
2023-05-20T04:28:23.975Z,20.73
2023-05-20T04:31:02.760Z,20.13
2023-05-20T04:33:31.186Z,20.37
2023-05-20T04:35:59.535Z,20.67
2023-05-20T04:38:29.974Z,21.70
2023-05-20T04:40:58.968Z,18.43
2023-05-20T04:43:29.937Z,20.87
2023-05-20T04:45:58.460Z,21.10
2023-05-20T04:48:28.058Z,22.50
2023-05-20T04:50:56.140Z,21.80
2023-05-20T04:53:24.251Z,22.23
2023-05-20T04:55:56.875Z,21.57
2023-05-20T04:58:25.596Z,21.10
2023-05-20T05:00:54.089Z,22.37
2023-05-20T05:03:22.165Z,23.07
2023-05-20T05:05:51.679Z,22.83
2023-05-20T05:08:19.859Z,22.87
2023-05-20T05:10:48.020Z,20.53
2023-05-20T05:13:16.248Z,22.03
2023-05-20T05:15:44.419Z,22.37
2023-05-20T05:18:12.619Z,22.73
2023-05-20T05:20:41.631Z,21.67
2023-05-20T05:23:11.095Z,23.07
2023-05-20T05:25:39.198Z,21.73
2023-05-20T05:28:07.279Z,22.90
2023-05-20T05:30:35.603Z,23.20
2023-05-20T05:33:03.935Z,25.53
2023-05-20T05:35:32.381Z,23.30
2023-05-20T05:38:00.689Z,23.27
2023-05-20T05:40:30.248Z,24.80
2023-05-20T05:42:58.318Z,21.27
2023-05-20T05:45:26.486Z,22.40
2023-05-20T05:47:55.204Z,22.40
2023-05-20T05:50:23.409Z,24.33
2023-05-20T05:52:51.506Z,24.20
2023-05-20T05:55:19.623Z,24.47
2023-05-20T05:57:49.060Z,24.10
2023-05-20T06:00:18.151Z,24.40
2023-05-20T06:02:46.598Z,22.70
2023-05-20T06:05:14.788Z,23.90
2023-05-20T06:07:42.921Z,24.10
2023-05-20T06:10:12.004Z,25.50
2023-05-20T06:12:40.112Z,25.53
2023-05-20T06:15:10.966Z,26.03
2023-05-20T06:17:39.133Z,24.83
2023-05-20T06:20:08.604Z,27.70
2023-05-20T06:22:36.725Z,23.37
2023-05-20T06:25:06.293Z,25.10
2023-05-20T06:27:34.414Z,25.30
2023-05-20T06:30:02.562Z,26.87
2023-05-20T06:32:32.374Z,26.53
2023-05-20T06:35:00.807Z,24.90
2023-05-20T06:37:29.162Z,24.13
2023-05-20T06:39:57.235Z,26.47
2023-05-20T06:42:25.414Z,25.87
2023-05-20T06:44:53.486Z,25.87
2023-05-20T06:47:22.023Z,26.57
2023-05-20T06:49:51.565Z,25.80
2023-05-20T06:52:19.668Z,27.57
2023-05-20T06:54:47.781Z,25.50
2023-05-20T06:57:16.087Z,25.33
2023-05-20T06:59:44.268Z,27.37
2023-05-20T07:02:12.583Z,26.23
2023-05-20T07:04:40.718Z,26.13
2023-05-20T07:07:10.274Z,26.70
2023-05-20T07:09:38.398Z,27.87
2023-05-20T07:12:07.123Z,24.90
2023-05-20T07:14:35.212Z,25.30
2023-05-20T07:17:03.295Z,27.07
2023-05-20T07:19:31.743Z,25.70
2023-05-20T07:21:59.936Z,25.80
2023-05-20T07:24:29.412Z,23.77
2023-05-20T07:26:57.590Z,25.30
2023-05-20T07:29:25.942Z,24.30
2023-05-20T07:31:54.106Z,23.50
2023-05-20T07:34:22.721Z,22.00
2023-05-20T07:36:51.410Z,24.60
2023-05-20T07:39:19.549Z,25.97
2023-05-20T07:41:49.034Z,26.90
2023-05-20T07:44:18.731Z,23.57
2023-05-20T07:46:46.842Z,23.90
2023-05-20T07:49:15.454Z,23.50
2023-05-20T07:51:43.594Z,24.33
2023-05-20T07:54:11.851Z,25.57
2023-05-20T07:56:40.036Z,25.80
2023-05-20T07:59:09.514Z,24.17
2023-05-20T08:01:38.007Z,24.97
2023-05-20T08:04:06.439Z,24.07
2023-05-20T08:06:35.391Z,23.00
2023-05-20T08:09:03.940Z,24.00
2023-05-20T08:11:32.099Z,22.67
2023-05-20T08:14:00.211Z,22.17
2023-05-20T08:16:30.059Z,21.77
2023-05-20T08:18:58.310Z,22.37
2023-05-20T08:21:26.760Z,21.60
2023-05-20T08:23:54.930Z,21.80
2023-05-20T08:26:23.170Z,23.33
2023-05-20T08:28:51.263Z,22.30
2023-05-20T08:31:19.952Z,23.30
2023-05-20T08:33:49.575Z,23.00
2023-05-20T08:36:19.450Z,20.93
2023-05-20T08:38:47.614Z,22.80
2023-05-20T08:41:15.748Z,21.13
2023-05-20T08:43:45.089Z,23.57
2023-05-20T08:46:15.169Z,21.67
2023-05-20T08:48:45.095Z,21.03
2023-05-20T08:51:17.202Z,21.40
2023-05-20T08:53:45.743Z,20.90
2023-05-20T08:56:14.933Z,22.47
2023-05-20T08:58:44.234Z,21.80
2023-05-20T09:01:12.468Z,20.77
2023-05-20T09:03:40.652Z,20.03
2023-05-20T09:06:10.062Z,21.27
2023-05-20T09:08:39.881Z,22.87
2023-05-20T09:11:10.817Z,21.37
2023-05-20T09:13:38.907Z,22.30
2023-05-20T09:16:07.538Z,20.70
2023-05-20T09:18:39.228Z,20.40
2023-05-20T09:21:08.536Z,20.50
2023-05-20T09:23:39.781Z,21.90
2023-05-20T09:26:07.991Z,19.53
2023-05-20T09:28:38.419Z,20.80
2023-05-20T09:31:08.837Z,21.20
2023-05-20T09:33:39.422Z,22.00
2023-05-20T09:36:09.818Z,21.17
2023-05-20T09:38:41.702Z,20.10
2023-05-20T09:41:12.447Z,22.50
2023-05-20T09:43:41.643Z,18.70
2023-05-20T09:46:10.344Z,20.40
2023-05-20T09:48:39.063Z,20.10
2023-05-20T09:51:08.204Z,19.10
2023-05-20T09:53:37.630Z,20.13
2023-05-20T09:56:07.728Z,18.53
2023-05-20T09:58:37.347Z,20.47
2023-05-20T10:01:06.802Z,18.60
2023-05-20T10:03:36.221Z,18.57
2023-05-20T10:06:35.408Z,17.40
2023-05-20T10:09:19.403Z,19.03
2023-05-20T10:11:59.608Z,18.63
2023-05-20T10:14:39.704Z,20.17
2023-05-20T10:17:15.158Z,19.40
2023-05-20T10:19:43.516Z,19.03
2023-05-20T10:22:13.832Z,19.30
2023-05-20T10:24:44.113Z,21.87
2023-05-20T10:27:15.503Z,20.53
2023-05-20T10:29:45.141Z,19.23
2023-05-20T10:32:13.336Z,18.00
2023-05-20T10:34:49.011Z,17.17
2023-05-20T10:37:26.447Z,18.40
2023-05-20T10:40:04.771Z,19.53
2023-05-20T10:42:34.282Z,16.97
2023-05-20T10:45:02.357Z,19.43
2023-05-20T10:47:31.141Z,18.73
2023-05-20T10:49:59.560Z,19.33
2023-05-20T10:52:27.825Z,17.93
2023-05-20T10:54:59.860Z,18.77
2023-05-20T10:57:29.232Z,18.93
2023-05-20T10:59:59.252Z,19.50
2023-05-20T11:02:28.758Z,20.47
2023-05-20T11:04:58.201Z,19.17
2023-05-20T11:07:27.809Z,18.10
2023-05-20T11:09:56.146Z,21.63
2023-05-20T11:12:25.210Z,19.97
2023-05-20T11:14:53.587Z,19.30
2023-05-20T11:17:23.198Z,22.07
2023-05-20T11:19:52.048Z,20.73
2023-05-20T11:22:20.146Z,20.03
2023-05-20T11:24:48.420Z,19.07
2023-05-20T11:27:16.693Z,19.70
2023-05-20T11:29:45.001Z,19.57
2023-05-20T11:32:13.962Z,19.97
2023-05-20T11:34:43.700Z,20.23
2023-05-20T11:37:13.711Z,20.77
2023-05-20T11:39:41.835Z,20.97
2023-05-20T11:42:10.019Z,20.23
2023-05-20T11:44:38.539Z,19.80
2023-05-20T11:47:06.828Z,20.33
2023-05-20T11:49:41.558Z,20.60
2023-05-20T11:52:13.479Z,20.40
2023-05-20T11:54:41.594Z,19.40
2023-05-20T11:57:09.742Z,19.87
2023-05-20T11:59:37.856Z,21.53
2023-05-20T12:02:05.995Z,20.50
2023-05-20T12:04:34.122Z,21.57
2023-05-20T12:07:04.101Z,21.23
2023-05-20T12:09:33.589Z,22.60
2023-05-20T12:12:02.697Z,22.77
2023-05-20T12:14:30.836Z,22.13
2023-05-20T12:16:59.848Z,22.23
2023-05-20T12:19:28.079Z,21.20
2023-05-20T12:21:56.380Z,22.93
2023-05-20T12:24:24.504Z,22.13
2023-05-20T12:26:53.960Z,23.57
2023-05-20T12:29:22.032Z,22.53
2023-05-20T12:31:50.183Z,23.63
2023-05-20T12:34:18.326Z,20.93
2023-05-20T12:36:47.158Z,23.40
2023-05-20T12:39:17.764Z,23.23
2023-05-20T12:41:46.053Z,24.87
2023-05-20T12:44:15.614Z,22.60
2023-05-20T12:46:43.965Z,24.80
2023-05-20T12:49:13.287Z,23.97
2023-05-20T12:51:41.381Z,23.30
2023-05-20T12:54:09.501Z,23.50
2023-05-20T12:56:37.634Z,24.10
2023-05-20T12:59:05.792Z,25.57
2023-05-20T13:01:35.368Z,25.60
2023-05-20T13:04:03.595Z,25.90
2023-05-20T13:06:32.383Z,25.60
2023-05-20T13:09:00.469Z,25.40
2023-05-20T13:11:28.600Z,25.03
2023-05-20T13:13:57.686Z,24.40
2023-05-20T13:16:26.427Z,25.17
2023-05-20T13:18:56.105Z,24.77
2023-05-20T13:21:24.738Z,25.33
2023-05-20T13:23:53.146Z,26.73
2023-05-20T13:26:21.953Z,24.90
2023-05-20T13:28:50.095Z,24.43
2023-05-20T13:31:18.259Z,23.20
2023-05-20T13:33:46.374Z,24.57
2023-05-20T13:36:15.878Z,23.70
2023-05-20T13:38:43.978Z,25.50
2023-05-20T13:41:12.226Z,26.63
2023-05-20T13:43:42.151Z,26.40
2023-05-20T13:46:10.433Z,25.47
2023-05-20T13:48:38.614Z,24.47
2023-05-20T13:51:06.969Z,25.20
2023-05-20T13:53:36.499Z,24.93
2023-05-20T13:56:05.411Z,26.40
2023-05-20T13:58:33.506Z,28.87
2023-05-20T14:01:01.673Z,26.60
2023-05-20T14:03:30.071Z,25.47
2023-05-20T14:05:58.435Z,26.50
2023-05-20T14:08:26.709Z,28.70
2023-05-20T14:10:56.226Z,28.83
2023-05-20T14:13:24.615Z,28.33
2023-05-20T14:15:54.940Z,28.20
2023-05-20T14:18:23.205Z,26.07
2023-05-20T14:20:51.442Z,27.13
2023-05-20T14:23:19.621Z,28.43
2023-05-20T14:25:47.749Z,27.30
2023-05-20T14:28:17.277Z,30.80
2023-05-20T14:30:45.543Z,27.87
2023-05-20T14:33:13.728Z,27.30
2023-05-20T14:35:41.850Z,28.67
2023-05-20T14:38:09.953Z,26.80
2023-05-20T14:40:38.178Z,27.37
2023-05-20T14:43:06.367Z,28.27
2023-05-20T14:45:35.971Z,27.13
2023-05-20T14:48:04.289Z,26.67
2023-05-20T14:50:32.510Z,27.87
2023-05-20T14:53:00.786Z,28.10
2023-05-20T14:55:28.913Z,24.90
2023-05-20T14:57:57.008Z,28.27
2023-05-20T15:00:25.119Z,27.37
2023-05-20T15:02:54.889Z,26.80
2023-05-20T15:05:23.027Z,26.53
2023-05-20T15:07:51.605Z,27.20
2023-05-20T15:10:19.768Z,25.90
2023-05-20T15:12:47.841Z,27.90
2023-05-20T15:15:16.177Z,27.53
2023-05-20T15:17:44.323Z,28.60
2023-05-20T15:20:14.318Z,25.80
2023-05-20T15:22:43.984Z,30.80
2023-05-20T15:25:12.148Z,28.57
2023-05-20T15:27:41.294Z,27.20
2023-05-20T15:30:10.306Z,28.07
2023-05-20T15:32:39.689Z,25.83
2023-05-20T15:35:08.829Z,26.53
2023-05-20T15:37:38.512Z,27.50
2023-05-20T15:40:07.685Z,24.40
2023-05-20T15:42:35.888Z,27.07
2023-05-20T15:45:04.014Z,27.73
2023-05-20T15:47:32.135Z,25.20
2023-05-20T15:50:02.261Z,26.23
2023-05-20T15:52:30.453Z,26.70
2023-05-20T15:54:59.949Z,26.53
2023-05-20T15:57:29.258Z,25.90
2023-05-20T15:59:57.529Z,26.50
2023-05-20T16:02:26.268Z,25.53
2023-05-20T16:04:54.549Z,25.33
2023-05-20T16:07:22.642Z,26.37
2023-05-20T16:09:50.781Z,25.67
2023-05-20T16:12:20.254Z,25.10
2023-05-20T16:14:48.435Z,24.60
2023-05-20T16:17:16.881Z,24.83
2023-05-20T16:19:45.027Z,25.63
2023-05-20T16:22:13.497Z,25.83
2023-05-20T16:24:41.950Z,25.40
2023-05-20T16:27:10.046Z,28.73
2023-05-20T16:29:40.260Z,26.57
2023-05-20T16:32:08.546Z,25.10
2023-05-20T16:34:36.639Z,25.70
2023-05-20T16:37:04.813Z,25.97
2023-05-20T16:39:32.973Z,26.70
2023-05-20T16:42:01.572Z,25.90
2023-05-20T16:44:29.728Z,23.93
2023-05-20T16:46:59.174Z,27.07
2023-05-20T16:49:27.273Z,27.27
2023-05-20T16:51:55.448Z,27.37
2023-05-20T16:54:23.550Z,26.73
2023-05-20T16:56:51.746Z,25.77
2023-05-20T16:59:19.824Z,26.37
2023-05-20T17:01:48.041Z,27.27
2023-05-20T17:04:17.557Z,27.57
2023-05-20T17:06:45.691Z,27.77
2023-05-20T17:09:13.754Z,26.20
2023-05-20T17:11:41.979Z,27.60
2023-05-20T17:14:10.163Z,27.57
2023-05-20T17:16:38.440Z,29.97
2023-05-20T17:19:06.607Z,26.50
2023-05-20T17:21:36.379Z,28.43
2023-05-20T17:24:04.654Z,27.40
2023-05-20T17:26:32.773Z,27.13
2023-05-20T17:29:00.969Z,26.70
2023-05-20T17:31:29.113Z,29.90
2023-05-20T17:33:57.240Z,27.37
2023-05-20T17:36:25.582Z,28.67
2023-05-20T17:38:55.030Z,27.70
2023-05-20T17:41:23.137Z,29.93
2023-05-20T17:43:51.493Z,27.50
2023-05-20T17:46:19.667Z,29.10
2023-05-20T17:48:47.817Z,28.10
2023-05-20T17:51:16.907Z,30.73
2023-05-20T17:53:45.028Z,27.93
2023-05-20T17:56:14.698Z,28.40
2023-05-20T17:58:44.969Z,27.33
2023-05-20T18:01:13.110Z,26.70
2023-05-20T18:03:41.758Z,27.10
2023-05-20T18:06:10.040Z,27.53
2023-05-20T18:08:38.136Z,28.03
2023-05-20T18:11:06.392Z,28.47
2023-05-20T18:13:35.968Z,27.03
2023-05-20T18:16:04.113Z,25.97
2023-05-20T18:18:32.241Z,26.27
2023-05-20T18:21:00.549Z,26.53
2023-05-20T18:23:28.643Z,27.20
2023-05-20T18:25:56.811Z,28.20
2023-05-20T18:28:24.885Z,28.27
2023-05-20T18:30:55.552Z,25.37
2023-05-20T18:33:24.957Z,26.73
2023-05-20T18:35:54.040Z,30.57
2023-05-20T18:38:22.488Z,27.27
2023-05-20T18:40:50.649Z,27.60
2023-05-20T18:43:18.779Z,27.70
2023-05-20T18:45:46.947Z,25.10
2023-05-20T18:48:25.540Z,28.13
2023-05-20T18:50:54.567Z,28.40
2023-05-20T18:53:23.655Z,25.93
2023-05-20T18:55:52.369Z,28.20
2023-05-20T18:58:20.654Z,27.20
2023-05-20T19:00:48.817Z,25.60
2023-05-20T19:03:18.338Z,29.10
2023-05-20T19:05:46.604Z,27.50
2023-05-20T19:08:14.782Z,29.30
2023-05-20T19:10:42.920Z,26.73
2023-05-20T19:13:11.207Z,28.43
2023-05-20T19:15:39.270Z,27.20
2023-05-20T19:18:07.480Z,29.00
2023-05-20T19:20:37.021Z,26.63
2023-05-20T19:23:05.132Z,27.60
2023-05-20T19:25:33.463Z,27.93
2023-05-20T19:28:01.685Z,27.33
2023-05-20T19:30:29.780Z,26.57
2023-05-20T19:32:58.049Z,27.57
2023-05-20T19:35:26.179Z,27.20
2023-05-20T19:37:55.704Z,27.33
2023-05-20T19:40:23.860Z,27.20
2023-05-20T19:42:52.515Z,29.60
2023-05-20T19:45:21.800Z,28.40
2023-05-20T19:47:50.066Z,27.90
2023-05-20T19:50:18.262Z,27.73
2023-05-20T19:52:46.383Z,29.83
2023-05-20T19:55:16.353Z,28.37
2023-05-20T19:57:46.813Z,28.23
2023-05-20T20:00:15.474Z,28.47
2023-05-20T20:02:43.589Z,28.97
2023-05-20T20:05:11.756Z,29.60
2023-05-20T20:07:39.902Z,27.83
2023-05-20T20:10:09.466Z,30.03
2023-05-20T20:12:39.567Z,28.97
2023-05-20T20:15:09.101Z,29.03
2023-05-20T20:17:37.806Z,30.50
2023-05-20T20:20:10.225Z,29.03
2023-05-20T20:22:38.392Z,31.20
2023-05-20T20:25:07.437Z,31.10
2023-05-20T20:27:35.946Z,32.00
2023-05-20T20:30:06.301Z,31.90
2023-05-20T20:32:35.625Z,28.80
2023-05-20T20:35:06.919Z,31.20
2023-05-20T20:37:36.053Z,32.00
2023-05-20T20:40:05.425Z,30.17
2023-05-20T20:42:33.512Z,31.43
2023-05-20T20:45:02.315Z,30.13
2023-05-20T20:47:31.902Z,31.13
2023-05-20T20:50:00.026Z,32.07
2023-05-20T20:52:28.264Z,31.63
2023-05-20T20:54:57.048Z,29.97
2023-05-20T20:57:26.634Z,32.73
2023-05-20T20:59:57.820Z,29.80
2023-05-20T21:02:26.237Z,27.20
2023-05-20T21:04:59.130Z,31.20
2023-05-20T21:07:27.230Z,31.23
2023-05-20T21:09:55.646Z,29.40
2023-05-20T21:12:24.290Z,28.17
2023-05-20T21:14:52.400Z,32.53
2023-05-20T21:17:20.538Z,30.53
2023-05-20T21:19:48.688Z,33.97
2023-05-20T21:22:18.171Z,34.03
2023-05-20T21:24:46.280Z,33.10
2023-05-20T21:27:14.428Z,33.63
2023-05-20T21:29:42.528Z,30.00
2023-05-20T21:32:10.709Z,28.87
2023-05-20T21:34:38.811Z,32.70
2023-05-20T21:37:07.000Z,33.03
2023-05-20T21:39:38.778Z,33.30
2023-05-20T21:42:07.450Z,32.63
2023-05-20T21:44:35.588Z,33.43
2023-05-20T21:47:03.699Z,35.10
2023-05-20T21:49:31.776Z,32.50
2023-05-20T21:51:59.878Z,35.23
2023-05-20T21:54:27.970Z,34.93
2023-05-20T21:56:57.407Z,40.80
2023-05-20T21:59:25.649Z,38.87
2023-05-20T22:01:54.310Z,36.53
2023-05-20T22:04:23.153Z,36.50
2023-05-20T22:06:51.309Z,34.93
2023-05-20T22:09:19.432Z,33.10
2023-05-20T22:11:48.083Z,35.87
2023-05-20T22:14:17.641Z,34.37
2023-05-20T22:16:48.594Z,37.53
2023-05-20T22:19:18.030Z,37.37
2023-05-20T22:21:50.612Z,32.20
2023-05-20T22:24:19.101Z,36.80
2023-05-20T22:26:47.231Z,33.93
2023-05-20T22:29:15.328Z,34.30
2023-05-20T22:31:44.868Z,35.53
2023-05-20T22:34:12.976Z,36.43
2023-05-20T22:36:41.732Z,33.43
2023-05-20T22:39:09.838Z,33.07
2023-05-20T22:41:37.948Z,36.53
2023-05-20T22:44:06.254Z,38.10
2023-05-20T22:46:34.436Z,36.10
2023-05-20T22:49:03.923Z,32.63
2023-05-20T22:51:34.240Z,35.77
2023-05-20T22:54:02.322Z,36.00
2023-05-20T22:56:32.592Z,36.23
2023-05-20T22:59:00.730Z,34.33
2023-05-20T23:01:28.941Z,35.80
2023-05-20T23:03:57.068Z,34.63
2023-05-20T23:06:26.916Z,35.07
2023-05-20T23:08:55.056Z,36.80
2023-05-20T23:11:23.344Z,37.30
2023-05-20T23:13:51.501Z,36.10
2023-05-20T23:16:19.648Z,39.30
2023-05-20T23:18:47.933Z,31.73
2023-05-20T23:21:16.969Z,34.10
2023-05-20T23:23:46.620Z,34.47
2023-05-20T23:26:14.858Z,32.93
2023-05-20T23:28:42.948Z,38.20
2023-05-20T23:31:12.080Z,36.00
2023-05-20T23:33:40.237Z,34.67
2023-05-20T23:36:09.593Z,35.23
2023-05-20T23:38:37.986Z,33.20
2023-05-20T23:41:07.631Z,36.30
2023-05-20T23:43:35.706Z,38.07
2023-05-20T23:46:04.012Z,36.13
2023-05-20T23:48:32.138Z,36.63
2023-05-20T23:51:00.223Z,36.07
2023-05-20T23:53:28.337Z,33.23
2023-05-20T23:55:56.458Z,35.60
2023-05-20T23:58:25.949Z,36.70
